sensor_id;sensor_type;location;lat;lon;timestamp;P1;durP1;ratioP1;P2;durP2;ratioP2
39612;SDS011;25303;48.896;13.342;2023-04-24T00:01:05;1.05;;;0.40;;
39612;SDS011;25303;48.896;13.342;2023-04-24T00:03:49;2.17;;;0.57;;
39612;SDS011;25303;48.896;13.342;2023-04-24T00:06:32;1.13;;;0.40;;
39612;SDS011;25303;48.896;13.342;2023-04-24T00:09:15;1.27;;;0.50;;
39612;SDS011;25303;48.896;13.342;2023-04-24T00:11:58;0.60;;;0.40;;
39612;SDS011;25303;48.896;13.342;2023-04-24T00:14:41;1.35;;;0.65;;
39612;SDS011;25303;48.896;13.342;2023-04-24T00:17:25;0.98;;;0.40;;
39612;SDS011;25303;48.896;13.342;2023-04-24T00:20:08;0.90;;;0.50;;
39612;SDS011;25303;48.896;13.342;2023-04-24T00:22:52;1.17;;;0.47;;
39612;SDS011;25303;48.896;13.342;2023-04-24T00:25:35;0.75;;;0.40;;
39612;SDS011;25303;48.896;13.342;2023-04-24T00:28:17;0.75;;;0.40;;
39612;SDS011;25303;48.896;13.342;2023-04-24T00:31:01;1.20;;;0.70;;
39612;SDS011;25303;48.896;13.342;2023-04-24T00:33:45;0.77;;;0.60;;
39612;SDS011;25303;48.896;13.342;2023-04-24T00:36:28;0.60;;;0.50;;
39612;SDS011;25303;48.896;13.342;2023-04-24T00:39:12;0.90;;;0.50;;
39612;SDS011;25303;48.896;13.342;2023-04-24T00:41:55;0.85;;;0.60;;
39612;SDS011;25303;48.896;13.342;2023-04-24T00:44:39;1.30;;;0.40;;
39612;SDS011;25303;48.896;13.342;2023-04-24T00:47:21;1.77;;;0.65;;
39612;SDS011;25303;48.896;13.342;2023-04-24T00:50:07;1.85;;;0.65;;
39612;SDS011;25303;48.896;13.342;2023-04-24T00:52:51;2.60;;;0.60;;
39612;SDS011;25303;48.896;13.342;2023-04-24T00:55:34;1.30;;;0.70;;
39612;SDS011;25303;48.896;13.342;2023-04-24T00:58:18;0.90;;;0.50;;
39612;SDS011;25303;48.896;13.342;2023-04-24T01:01:02;1.23;;;0.60;;
39612;SDS011;25303;48.896;13.342;2023-04-24T01:03:48;1.77;;;0.90;;
39612;SDS011;25303;48.896;13.342;2023-04-24T01:06:35;3.30;;;1.23;;
39612;SDS011;25303;48.896;13.342;2023-04-24T01:09:21;1.65;;;0.80;;
39612;SDS011;25303;48.896;13.342;2023-04-24T01:14:51;0.57;;;0.40;;
39612;SDS011;25303;48.896;13.342;2023-04-24T01:17:34;1.20;;;0.55;;
39612;SDS011;25303;48.896;13.342;2023-04-24T01:20:17;1.27;;;0.60;;
39612;SDS011;25303;48.896;13.342;2023-04-24T01:23:01;0.60;;;0.50;;
39612;SDS011;25303;48.896;13.342;2023-04-24T01:25:44;1.00;;;0.47;;
39612;SDS011;25303;48.896;13.342;2023-04-24T01:28:28;1.55;;;0.57;;
39612;SDS011;25303;48.896;13.342;2023-04-24T01:31:11;1.05;;;0.60;;
39612;SDS011;25303;48.896;13.342;2023-04-24T01:33:54;0.73;;;0.68;;
39612;SDS011;25303;48.896;13.342;2023-04-24T01:36:39;1.10;;;0.60;;
39612;SDS011;25303;48.896;13.342;2023-04-24T01:39:25;1.95;;;0.65;;
39612;SDS011;25303;48.896;13.342;2023-04-24T01:42:09;0.68;;;0.50;;
39612;SDS011;25303;48.896;13.342;2023-04-24T01:44:53;1.60;;;0.60;;
39612;SDS011;25303;48.896;13.342;2023-04-24T01:47:37;0.88;;;0.47;;
39612;SDS011;25303;48.896;13.342;2023-04-24T01:50:22;0.50;;;0.50;;
39612;SDS011;25303;48.896;13.342;2023-04-24T01:53:05;1.63;;;0.63;;
39612;SDS011;25303;48.896;13.342;2023-04-24T01:58:34;0.80;;;0.40;;
39612;SDS011;25303;48.896;13.342;2023-04-24T02:01:17;0.52;;;0.40;;
39612;SDS011;25303;48.896;13.342;2023-04-24T02:04:01;0.65;;;0.50;;
39612;SDS011;25303;48.896;13.342;2023-04-24T02:06:45;1.08;;;0.50;;
39612;SDS011;25303;48.896;13.342;2023-04-24T02:09:28;0.70;;;0.50;;
39612;SDS011;25303;48.896;13.342;2023-04-24T02:12:12;1.23;;;0.57;;
39612;SDS011;25303;48.896;13.342;2023-04-24T02:14:55;1.13;;;0.60;;
39612;SDS011;25303;48.896;13.342;2023-04-24T02:17:38;0.50;;;0.50;;
39612;SDS011;25303;48.896;13.342;2023-04-24T02:20:21;0.95;;;0.60;;
39612;SDS011;25303;48.896;13.342;2023-04-24T02:23:04;1.88;;;0.50;;
39612;SDS011;25303;48.896;13.342;2023-04-24T02:25:46;0.60;;;0.30;;
39612;SDS011;25303;48.896;13.342;2023-04-24T02:28:32;1.67;;;0.47;;
39612;SDS011;25303;48.896;13.342;2023-04-24T02:31:15;0.40;;;0.38;;
39612;SDS011;25303;48.896;13.342;2023-04-24T02:33:58;0.82;;;0.40;;
39612;SDS011;25303;48.896;13.342;2023-04-24T02:36:41;0.60;;;0.50;;
39612;SDS011;25303;48.896;13.342;2023-04-24T02:39:24;0.68;;;0.50;;
39612;SDS011;25303;48.896;13.342;2023-04-24T02:42:08;0.63;;;0.55;;
39612;SDS011;25303;48.896;13.342;2023-04-24T02:44:52;0.65;;;0.52;;
39612;SDS011;25303;48.896;13.342;2023-04-24T02:47:35;1.15;;;0.65;;
39612;SDS011;25303;48.896;13.342;2023-04-24T02:50:18;0.85;;;0.52;;
39612;SDS011;25303;48.896;13.342;2023-04-24T02:53:01;0.40;;;0.40;;
39612;SDS011;25303;48.896;13.342;2023-04-24T02:55:44;0.40;;;0.40;;
39612;SDS011;25303;48.896;13.342;2023-04-24T02:58:27;0.57;;;0.45;;
39612;SDS011;25303;48.896;13.342;2023-04-24T03:01:11;0.50;;;0.40;;
39612;SDS011;25303;48.896;13.342;2023-04-24T03:03:54;0.30;;;0.30;;
39612;SDS011;25303;48.896;13.342;2023-04-24T03:06:37;0.88;;;0.30;;
39612;SDS011;25303;48.896;13.342;2023-04-24T03:09:21;0.30;;;0.20;;
39612;SDS011;25303;48.896;13.342;2023-04-24T03:12:04;0.28;;;0.28;;
39612;SDS011;25303;48.896;13.342;2023-04-24T03:14:47;0.25;;;0.25;;
39612;SDS011;25303;48.896;13.342;2023-04-24T03:17:31;0.20;;;0.20;;
39612;SDS011;25303;48.896;13.342;2023-04-24T03:20:14;0.65;;;0.30;;
39612;SDS011;25303;48.896;13.342;2023-04-24T03:22:58;0.20;;;0.20;;
39612;SDS011;25303;48.896;13.342;2023-04-24T03:25:41;0.30;;;0.22;;
39612;SDS011;25303;48.896;13.342;2023-04-24T03:28:26;1.58;;;0.30;;
39612;SDS011;25303;48.896;13.342;2023-04-24T03:31:13;0.22;;;0.20;;
39612;SDS011;25303;48.896;13.342;2023-04-24T03:33:58;1.58;;;0.30;;
39612;SDS011;25303;48.896;13.342;2023-04-24T03:36:41;0.73;;;0.20;;
39612;SDS011;25303;48.896;13.342;2023-04-24T03:39:24;0.50;;;0.30;;
39612;SDS011;25303;48.896;13.342;2023-04-24T03:42:09;0.20;;;0.20;;
39612;SDS011;25303;48.896;13.342;2023-04-24T03:45:03;30.20;;;0.90;;
39612;SDS011;25303;48.896;13.342;2023-04-24T03:47:50;4.25;;;0.32;;
39612;SDS011;25303;48.896;13.342;2023-04-24T03:50:35;0.15;;;0.15;;
39612;SDS011;25303;48.896;13.342;2023-04-24T03:53:18;0.25;;;0.20;;
39612;SDS011;25303;48.896;13.342;2023-04-24T03:56:03;13.85;;;0.70;;
39612;SDS011;25303;48.896;13.342;2023-04-24T03:58:47;3.63;;;0.20;;
39612;SDS011;25303;48.896;13.342;2023-04-24T04:01:30;6.47;;;0.40;;
39612;SDS011;25303;48.896;13.342;2023-04-24T04:04:17;0.47;;;0.40;;
39612;SDS011;25303;48.896;13.342;2023-04-24T04:07:02;0.80;;;0.32;;
39612;SDS011;25303;48.896;13.342;2023-04-24T04:09:46;0.45;;;0.40;;
39612;SDS011;25303;48.896;13.342;2023-04-24T04:12:30;0.50;;;0.40;;
39612;SDS011;25303;48.896;13.342;2023-04-24T04:15:13;0.75;;;0.30;;
39612;SDS011;25303;48.896;13.342;2023-04-24T04:17:56;0.68;;;0.40;;
39612;SDS011;25303;48.896;13.342;2023-04-24T04:20:39;0.30;;;0.30;;
39612;SDS011;25303;48.896;13.342;2023-04-24T04:23:24;0.47;;;0.20;;
39612;SDS011;25303;48.896;13.342;2023-04-24T04:26:19;0.45;;;0.32;;
39612;SDS011;25303;48.896;13.342;2023-04-24T04:29:12;0.50;;;0.40;;
39612;SDS011;25303;48.896;13.342;2023-04-24T04:32:00;2.55;;;0.60;;
39612;SDS011;25303;48.896;13.342;2023-04-24T04:34:44;1.17;;;0.45;;
39612;SDS011;25303;48.896;13.342;2023-04-24T04:37:27;0.50;;;0.40;;
39612;SDS011;25303;48.896;13.342;2023-04-24T04:40:34;0.95;;;0.40;;
39612;SDS011;25303;48.896;13.342;2023-04-24T04:43:19;0.50;;;0.40;;
39612;SDS011;25303;48.896;13.342;2023-04-24T04:46:06;0.90;;;0.50;;
39612;SDS011;25303;48.896;13.342;2023-04-24T04:49:13;0.40;;;0.40;;
39612;SDS011;25303;48.896;13.342;2023-04-24T04:51:58;0.40;;;0.40;;
39612;SDS011;25303;48.896;13.342;2023-04-24T04:54:42;0.88;;;0.55;;
39612;SDS011;25303;48.896;13.342;2023-04-24T04:57:26;1.20;;;0.60;;
39612;SDS011;25303;48.896;13.342;2023-04-24T05:00:11;0.80;;;0.70;;
39612;SDS011;25303;48.896;13.342;2023-04-24T05:03:02;1.35;;;0.70;;
39612;SDS011;25303;48.896;13.342;2023-04-24T05:06:03;1.38;;;0.73;;
39612;SDS011;25303;48.896;13.342;2023-04-24T05:08:50;1.73;;;0.60;;
39612;SDS011;25303;48.896;13.342;2023-04-24T05:11:46;1.27;;;1.00;;
39612;SDS011;25303;48.896;13.342;2023-04-24T05:14:30;3.20;;;1.33;;
39612;SDS011;25303;48.896;13.342;2023-04-24T05:17:13;4.78;;;2.15;;
39612;SDS011;25303;48.896;13.342;2023-04-24T05:19:57;3.72;;;1.73;;
39612;SDS011;25303;48.896;13.342;2023-04-24T05:22:39;2.85;;;1.48;;
39612;SDS011;25303;48.896;13.342;2023-04-24T05:25:23;3.67;;;1.90;;
39612;SDS011;25303;48.896;13.342;2023-04-24T05:28:11;1.90;;;1.58;;
39612;SDS011;25303;48.896;13.342;2023-04-24T05:30:56;2.38;;;1.98;;
39612;SDS011;25303;48.896;13.342;2023-04-24T05:33:40;1.98;;;1.10;;
39612;SDS011;25303;48.896;13.342;2023-04-24T05:44:48;2.47;;;1.25;;
39612;SDS011;25303;48.896;13.342;2023-04-24T05:47:35;2.97;;;1.73;;
39612;SDS011;25303;48.896;13.342;2023-04-24T05:50:19;2.08;;;1.10;;
39612;SDS011;25303;48.896;13.342;2023-04-24T05:53:02;2.45;;;1.40;;
39612;SDS011;25303;48.896;13.342;2023-04-24T05:55:48;2.92;;;1.38;;
39612;SDS011;25303;48.896;13.342;2023-04-24T05:58:31;1.40;;;1.00;;
39612;SDS011;25303;48.896;13.342;2023-04-24T06:01:15;3.38;;;1.02;;
39612;SDS011;25303;48.896;13.342;2023-04-24T06:04:06;2.47;;;1.30;;
39612;SDS011;25303;48.896;13.342;2023-04-24T06:06:49;4.35;;;1.73;;
39612;SDS011;25303;48.896;13.342;2023-04-24T06:09:37;2.58;;;1.50;;
39612;SDS011;25303;48.896;13.342;2023-04-24T06:12:20;1.98;;;1.33;;
39612;SDS011;25303;48.896;13.342;2023-04-24T06:15:12;1.40;;;1.10;;
39612;SDS011;25303;48.896;13.342;2023-04-24T06:18:04;2.67;;;1.20;;
39612;SDS011;25303;48.896;13.342;2023-04-24T06:20:49;1.50;;;1.23;;
39612;SDS011;25303;48.896;13.342;2023-04-24T06:23:33;1.55;;;1.15;;
39612;SDS011;25303;48.896;13.342;2023-04-24T06:26:16;1.60;;;1.30;;
39612;SDS011;25303;48.896;13.342;2023-04-24T06:28:59;1.70;;;1.40;;
39612;SDS011;25303;48.896;13.342;2023-04-24T06:31:42;2.33;;;1.35;;
39612;SDS011;25303;48.896;13.342;2023-04-24T06:34:26;1.70;;;1.25;;
39612;SDS011;25303;48.896;13.342;2023-04-24T06:37:11;2.72;;;1.65;;
39612;SDS011;25303;48.896;13.342;2023-04-24T06:39:54;2.15;;;1.85;;
39612;SDS011;25303;48.896;13.342;2023-04-24T06:42:37;2.15;;;1.52;;
39612;SDS011;25303;48.896;13.342;2023-04-24T06:45:22;2.17;;;1.40;;
39612;SDS011;25303;48.896;13.342;2023-04-24T06:48:05;3.08;;;1.70;;
39612;SDS011;25303;48.896;13.342;2023-04-24T06:50:48;2.30;;;1.55;;
39612;SDS011;25303;48.896;13.342;2023-04-24T06:53:33;2.08;;;1.88;;
39612;SDS011;25303;48.896;13.342;2023-04-24T06:56:16;2.58;;;1.52;;
39612;SDS011;25303;48.896;13.342;2023-04-24T06:58:59;3.08;;;1.60;;
39612;SDS011;25303;48.896;13.342;2023-04-24T07:01:42;1.55;;;1.30;;
39612;SDS011;25303;48.896;13.342;2023-04-24T07:04:26;2.45;;;1.80;;
39612;SDS011;25303;48.896;13.342;2023-04-24T07:07:09;3.38;;;1.70;;
39612;SDS011;25303;48.896;13.342;2023-04-24T07:09:57;3.85;;;2.13;;
39612;SDS011;25303;48.896;13.342;2023-04-24T07:12:40;7.18;;;3.63;;
39612;SDS011;25303;48.896;13.342;2023-04-24T07:15:23;4.07;;;2.80;;
39612;SDS011;25303;48.896;13.342;2023-04-24T07:18:06;3.85;;;2.70;;
39612;SDS011;25303;48.896;13.342;2023-04-24T07:20:49;3.75;;;2.70;;
39612;SDS011;25303;48.896;13.342;2023-04-24T07:23:32;3.80;;;2.33;;
39612;SDS011;25303;48.896;13.342;2023-04-24T07:26:16;3.65;;;2.47;;
39612;SDS011;25303;48.896;13.342;2023-04-24T07:28:59;2.30;;;1.80;;
39612;SDS011;25303;48.896;13.342;2023-04-24T07:31:42;2.10;;;1.42;;
39612;SDS011;25303;48.896;13.342;2023-04-24T07:34:25;2.47;;;1.48;;
39612;SDS011;25303;48.896;13.342;2023-04-24T07:37:08;2.25;;;1.55;;
39612;SDS011;25303;48.896;13.342;2023-04-24T07:39:52;1.60;;;1.17;;
39612;SDS011;25303;48.896;13.342;2023-04-24T07:42:36;1.25;;;1.00;;
39612;SDS011;25303;48.896;13.342;2023-04-24T07:45:19;1.65;;;1.10;;
39612;SDS011;25303;48.896;13.342;2023-04-24T07:50:47;1.88;;;0.88;;
39612;SDS011;25303;48.896;13.342;2023-04-24T07:53:30;2.67;;;0.90;;
39612;SDS011;25303;48.896;13.342;2023-04-24T07:56:13;0.90;;;0.80;;
39612;SDS011;25303;48.896;13.342;2023-04-24T07:58:58;1.77;;;0.90;;
39612;SDS011;25303;48.896;13.342;2023-04-24T08:01:41;1.10;;;0.90;;
39612;SDS011;25303;48.896;13.342;2023-04-24T08:04:24;1.90;;;1.30;;
39612;SDS011;25303;48.896;13.342;2023-04-24T08:07:07;1.55;;;1.27;;
39612;SDS011;25303;48.896;13.342;2023-04-24T08:09:50;1.75;;;1.13;;
39612;SDS011;25303;48.896;13.342;2023-04-24T08:12:33;2.03;;;1.33;;
39612;SDS011;25303;48.896;13.342;2023-04-24T08:15:17;1.98;;;1.20;;
39612;SDS011;25303;48.896;13.342;2023-04-24T08:18:00;2.75;;;1.20;;
39612;SDS011;25303;48.896;13.342;2023-04-24T08:20:43;1.75;;;1.10;;
39612;SDS011;25303;48.896;13.342;2023-04-24T08:23:26;1.25;;;0.82;;
39612;SDS011;25303;48.896;13.342;2023-04-24T08:26:10;1.27;;;0.90;;
39612;SDS011;25303;48.896;13.342;2023-04-24T08:28:53;1.48;;;0.63;;
39612;SDS011;25303;48.896;13.342;2023-04-24T08:31:37;0.90;;;0.73;;
39612;SDS011;25303;48.896;13.342;2023-04-24T08:34:21;0.77;;;0.60;;
39612;SDS011;25303;48.896;13.342;2023-04-24T08:37:04;2.00;;;0.90;;
39612;SDS011;25303;48.896;13.342;2023-04-24T08:39:47;3.05;;;0.70;;
39612;SDS011;25303;48.896;13.342;2023-04-24T08:42:30;3.72;;;0.80;;
39612;SDS011;25303;48.896;13.342;2023-04-24T08:45:15;1.27;;;0.98;;
39612;SDS011;25303;48.896;13.342;2023-04-24T08:47:59;1.23;;;0.80;;
39612;SDS011;25303;48.896;13.342;2023-04-24T08:50:43;1.77;;;0.70;;
39612;SDS011;25303;48.896;13.342;2023-04-24T08:53:26;1.90;;;0.88;;
39612;SDS011;25303;48.896;13.342;2023-04-24T08:56:09;2.28;;;1.00;;
39612;SDS011;25303;48.896;13.342;2023-04-24T08:58:53;2.67;;;0.75;;
39612;SDS011;25303;48.896;13.342;2023-04-24T09:01:37;1.50;;;1.00;;
39612;SDS011;25303;48.896;13.342;2023-04-24T09:04:23;1.30;;;0.70;;
39612;SDS011;25303;48.896;13.342;2023-04-24T09:07:08;1.00;;;0.75;;
39612;SDS011;25303;48.896;13.342;2023-04-24T09:09:54;1.00;;;0.90;;
39612;SDS011;25303;48.896;13.342;2023-04-24T09:12:37;1.63;;;0.80;;
39612;SDS011;25303;48.896;13.342;2023-04-24T09:15:20;0.88;;;0.63;;
39612;SDS011;25303;48.896;13.342;2023-04-24T09:18:04;0.77;;;0.70;;
39612;SDS011;25303;48.896;13.342;2023-04-24T09:20:58;1.55;;;0.90;;
39612;SDS011;25303;48.896;13.342;2023-04-24T09:23:43;2.55;;;0.90;;
39612;SDS011;25303;48.896;13.342;2023-04-24T09:26:28;0.82;;;0.70;;
39612;SDS011;25303;48.896;13.342;2023-04-24T09:29:14;1.33;;;0.55;;
39612;SDS011;25303;48.896;13.342;2023-04-24T09:31:59;0.90;;;0.60;;
39612;SDS011;25303;48.896;13.342;2023-04-24T09:35:05;1.05;;;0.50;;
39612;SDS011;25303;48.896;13.342;2023-04-24T09:37:50;1.70;;;0.73;;
39612;SDS011;25303;48.896;13.342;2023-04-24T09:40:34;1.35;;;0.68;;
39612;SDS011;25303;48.896;13.342;2023-04-24T09:43:20;0.82;;;0.60;;
39612;SDS011;25303;48.896;13.342;2023-04-24T09:46:04;1.00;;;0.60;;
39612;SDS011;25303;48.896;13.342;2023-04-24T09:48:49;0.73;;;0.50;;
39612;SDS011;25303;48.896;13.342;2023-04-24T09:54:20;1.38;;;0.40;;
39612;SDS011;25303;48.896;13.342;2023-04-24T09:57:04;0.88;;;0.40;;
39612;SDS011;25303;48.896;13.342;2023-04-24T09:59:48;1.90;;;0.52;;
39612;SDS011;25303;48.896;13.342;2023-04-24T10:02:35;1.50;;;0.80;;
39612;SDS011;25303;48.896;13.342;2023-04-24T10:05:18;1.05;;;0.60;;
39612;SDS011;25303;48.896;13.342;2023-04-24T10:08:06;1.08;;;0.60;;
39612;SDS011;25303;48.896;13.342;2023-04-24T10:10:51;0.90;;;0.70;;
39612;SDS011;25303;48.896;13.342;2023-04-24T10:13:35;0.88;;;0.57;;
39612;SDS011;25303;48.896;13.342;2023-04-24T10:16:18;1.17;;;0.40;;
39612;SDS011;25303;48.896;13.342;2023-04-24T10:19:02;0.40;;;0.40;;
39612;SDS011;25303;48.896;13.342;2023-04-24T10:21:46;1.50;;;0.50;;
39612;SDS011;25303;48.896;13.342;2023-04-24T10:24:29;0.80;;;0.50;;
39612;SDS011;25303;48.896;13.342;2023-04-24T10:27:14;1.00;;;0.60;;
39612;SDS011;25303;48.896;13.342;2023-04-24T10:29:57;0.82;;;0.60;;
39612;SDS011;25303;48.896;13.342;2023-04-24T10:32:41;1.13;;;0.55;;
39612;SDS011;25303;48.896;13.342;2023-04-24T10:35:24;1.17;;;0.60;;
39612;SDS011;25303;48.896;13.342;2023-04-24T10:38:09;0.60;;;0.50;;
39612;SDS011;25303;48.896;13.342;2023-04-24T10:40:57;1.08;;;0.50;;
39612;SDS011;25303;48.896;13.342;2023-04-24T10:43:50;1.23;;;0.60;;
39612;SDS011;25303;48.896;13.342;2023-04-24T10:46:49;0.50;;;0.50;;
39612;SDS011;25303;48.896;13.342;2023-04-24T10:49:36;0.60;;;0.60;;
39612;SDS011;25303;48.896;13.342;2023-04-24T10:52:19;1.40;;;0.70;;
39612;SDS011;25303;48.896;13.342;2023-04-24T10:55:03;1.17;;;0.70;;
39612;SDS011;25303;48.896;13.342;2023-04-24T10:58:02;0.63;;;0.40;;
39612;SDS011;25303;48.896;13.342;2023-04-24T11:00:55;1.40;;;0.40;;
39612;SDS011;25303;48.896;13.342;2023-04-24T11:03:39;0.80;;;0.50;;
39612;SDS011;25303;48.896;13.342;2023-04-24T11:06:34;1.90;;;0.60;;
39612;SDS011;25303;48.896;13.342;2023-04-24T11:09:17;0.88;;;0.40;;
39612;SDS011;25303;48.896;13.342;2023-04-24T11:12:03;0.63;;;0.50;;
39612;SDS011;25303;48.896;13.342;2023-04-24T11:15:01;0.55;;;0.40;;
39612;SDS011;25303;48.896;13.342;2023-04-24T11:17:47;0.90;;;0.60;;
39612;SDS011;25303;48.896;13.342;2023-04-24T11:20:30;0.68;;;0.45;;
39612;SDS011;25303;48.896;13.342;2023-04-24T11:23:13;1.13;;;0.55;;
39612;SDS011;25303;48.896;13.342;2023-04-24T11:26:09;2.05;;;0.50;;
39612;SDS011;25303;48.896;13.342;2023-04-24T11:28:53;1.17;;;0.60;;
39612;SDS011;25303;48.896;13.342;2023-04-24T11:31:39;0.90;;;0.50;;
39612;SDS011;25303;48.896;13.342;2023-04-24T11:34:24;1.23;;;0.60;;
39612;SDS011;25303;48.896;13.342;2023-04-24T11:39:51;0.82;;;0.68;;
39612;SDS011;25303;48.896;13.342;2023-04-24T11:42:35;1.00;;;0.60;;
39612;SDS011;25303;48.896;13.342;2023-04-24T11:45:21;1.48;;;0.63;;
39612;SDS011;25303;48.896;13.342;2023-04-24T11:48:05;1.02;;;0.80;;
39612;SDS011;25303;48.896;13.342;2023-04-24T11:50:51;1.30;;;0.90;;
39612;SDS011;25303;48.896;13.342;2023-04-24T11:53:34;1.30;;;0.80;;
39612;SDS011;25303;48.896;13.342;2023-04-24T11:56:19;2.83;;;0.77;;
39612;SDS011;25303;48.896;13.342;2023-04-24T11:59:03;1.30;;;0.70;;
39612;SDS011;25303;48.896;13.342;2023-04-24T12:01:46;1.85;;;0.93;;
39612;SDS011;25303;48.896;13.342;2023-04-24T12:04:37;2.67;;;0.80;;
39612;SDS011;25303;48.896;13.342;2023-04-24T12:07:23;1.10;;;0.90;;
39612;SDS011;25303;48.896;13.342;2023-04-24T12:12:51;1.30;;;0.88;;
39612;SDS011;25303;48.896;13.342;2023-04-24T12:15:35;1.10;;;0.77;;
39612;SDS011;25303;48.896;13.342;2023-04-24T12:18:22;0.77;;;0.73;;
39612;SDS011;25303;48.896;13.342;2023-04-24T12:21:15;1.92;;;0.90;;
39612;SDS011;25303;48.896;13.342;2023-04-24T12:24:05;0.90;;;0.80;;
39612;SDS011;25303;48.896;13.342;2023-04-24T12:26:48;1.08;;;0.80;;
39612;SDS011;25303;48.896;13.342;2023-04-24T12:29:31;1.70;;;0.93;;
39612;SDS011;25303;48.896;13.342;2023-04-24T12:32:15;0.85;;;0.70;;
39612;SDS011;25303;48.896;13.342;2023-04-24T12:34:58;1.42;;;0.90;;
39612;SDS011;25303;48.896;13.342;2023-04-24T12:37:42;1.77;;;0.70;;
39612;SDS011;25303;48.896;13.342;2023-04-24T12:40:29;0.88;;;0.63;;
39612;SDS011;25303;48.896;13.342;2023-04-24T12:43:13;1.60;;;0.98;;
39612;SDS011;25303;48.896;13.342;2023-04-24T12:45:57;1.92;;;1.20;;
39612;SDS011;25303;48.896;13.342;2023-04-24T12:48:41;1.48;;;0.75;;
39612;SDS011;25303;48.896;13.342;2023-04-24T12:51:24;1.52;;;0.80;;
39612;SDS011;25303;48.896;13.342;2023-04-24T12:54:07;1.00;;;0.80;;
39612;SDS011;25303;48.896;13.342;2023-04-24T12:56:53;2.00;;;1.00;;
39612;SDS011;25303;48.896;13.342;2023-04-24T12:59:36;2.47;;;1.00;;
39612;SDS011;25303;48.896;13.342;2023-04-24T13:02:20;2.90;;;1.65;;
39612;SDS011;25303;48.896;13.342;2023-04-24T13:05:05;2.25;;;1.00;;
39612;SDS011;25303;48.896;13.342;2023-04-24T13:07:48;1.40;;;0.82;;
39612;SDS011;25303;48.896;13.342;2023-04-24T13:10:31;1.45;;;0.98;;
39612;SDS011;25303;48.896;13.342;2023-04-24T13:13:15;1.95;;;0.82;;
39612;SDS011;25303;48.896;13.342;2023-04-24T13:15:58;2.33;;;0.70;;
39612;SDS011;25303;48.896;13.342;2023-04-24T13:18:41;1.73;;;0.90;;
39612;SDS011;25303;48.896;13.342;2023-04-24T13:21:27;1.73;;;1.00;;
39612;SDS011;25303;48.896;13.342;2023-04-24T13:24:23;1.75;;;0.90;;
39612;SDS011;25303;48.896;13.342;2023-04-24T13:27:06;1.27;;;0.80;;
39612;SDS011;25303;48.896;13.342;2023-04-24T13:29:51;3.15;;;1.27;;
39612;SDS011;25303;48.896;13.342;2023-04-24T13:32:33;2.97;;;1.40;;
39612;SDS011;25303;48.896;13.342;2023-04-24T13:35:18;2.05;;;1.35;;
39612;SDS011;25303;48.896;13.342;2023-04-24T13:38:01;2.35;;;1.10;;
39612;SDS011;25303;48.896;13.342;2023-04-24T13:40:47;0.90;;;0.75;;
39612;SDS011;25303;48.896;13.342;2023-04-24T13:43:30;1.00;;;0.70;;
39612;SDS011;25303;48.896;13.342;2023-04-24T13:46:15;1.65;;;0.73;;
39612;SDS011;25303;48.896;13.342;2023-04-24T13:48:58;1.30;;;0.75;;
39612;SDS011;25303;48.896;13.342;2023-04-24T13:51:42;0.70;;;0.55;;
39612;SDS011;25303;48.896;13.342;2023-04-24T13:54:26;1.83;;;0.80;;
39612;SDS011;25303;48.896;13.342;2023-04-24T13:57:09;0.90;;;0.70;;
39612;SDS011;25303;48.896;13.342;2023-04-24T13:59:52;0.80;;;0.68;;
39612;SDS011;25303;48.896;13.342;2023-04-24T14:02:38;0.73;;;0.57;;
39612;SDS011;25303;48.896;13.342;2023-04-24T14:05:22;0.40;;;0.40;;
39612;SDS011;25303;48.896;13.342;2023-04-24T14:08:06;1.45;;;0.50;;
39612;SDS011;25303;48.896;13.342;2023-04-24T14:10:49;1.92;;;0.50;;
39612;SDS011;25303;48.896;13.342;2023-04-24T14:13:32;0.80;;;0.55;;
39612;SDS011;25303;48.896;13.342;2023-04-24T14:16:16;1.25;;;0.47;;
39612;SDS011;25303;48.896;13.342;2023-04-24T14:19:01;2.42;;;0.70;;
39612;SDS011;25303;48.896;13.342;2023-04-24T14:21:44;0.70;;;0.50;;
39612;SDS011;25303;48.896;13.342;2023-04-24T14:24:26;1.48;;;0.70;;
39612;SDS011;25303;48.896;13.342;2023-04-24T14:27:11;0.90;;;0.50;;
39612;SDS011;25303;48.896;13.342;2023-04-24T14:29:53;0.88;;;0.50;;
39612;SDS011;25303;48.896;13.342;2023-04-24T14:32:38;2.47;;;0.90;;
39612;SDS011;25303;48.896;13.342;2023-04-24T14:35:22;1.25;;;0.68;;
39612;SDS011;25303;48.896;13.342;2023-04-24T14:38:05;0.60;;;0.60;;
39612;SDS011;25303;48.896;13.342;2023-04-24T14:40:48;2.20;;;1.00;;
39612;SDS011;25303;48.896;13.342;2023-04-24T14:43:34;1.50;;;0.95;;
39612;SDS011;25303;48.896;13.342;2023-04-24T14:46:17;2.25;;;1.20;;
39612;SDS011;25303;48.896;13.342;2023-04-24T14:49:01;1.58;;;1.00;;
39612;SDS011;25303;48.896;13.342;2023-04-24T14:51:47;1.53;;;0.93;;
39612;SDS011;25303;48.896;13.342;2023-04-24T14:54:29;2.30;;;1.00;;
39612;SDS011;25303;48.896;13.342;2023-04-24T14:57:13;2.05;;;1.20;;
39612;SDS011;25303;48.896;13.342;2023-04-24T14:59:57;1.73;;;1.00;;
39612;SDS011;25303;48.896;13.342;2023-04-24T15:02:39;2.92;;;1.30;;
39612;SDS011;25303;48.896;13.342;2023-04-24T15:05:26;1.77;;;1.20;;
39612;SDS011;25303;48.896;13.342;2023-04-24T15:08:11;1.50;;;0.83;;
39612;SDS011;25303;48.896;13.342;2023-04-24T15:10:54;1.40;;;0.90;;
39612;SDS011;25303;48.896;13.342;2023-04-24T15:13:37;1.63;;;0.95;;
39612;SDS011;25303;48.896;13.342;2023-04-24T15:16:20;2.35;;;0.88;;
39612;SDS011;25303;48.896;13.342;2023-04-24T15:19:03;2.50;;;0.90;;
39612;SDS011;25303;48.896;13.342;2023-04-24T15:21:47;3.20;;;1.00;;
39612;SDS011;25303;48.896;13.342;2023-04-24T15:24:31;1.73;;;0.80;;
39612;SDS011;25303;48.896;13.342;2023-04-24T15:27:14;2.78;;;0.90;;
39612;SDS011;25303;48.896;13.342;2023-04-24T15:29:57;2.05;;;1.10;;
39612;SDS011;25303;48.896;13.342;2023-04-24T15:32:40;1.48;;;0.80;;
39612;SDS011;25303;48.896;13.342;2023-04-24T15:35:23;2.20;;;0.90;;
39612;SDS011;25303;48.896;13.342;2023-04-24T15:38:06;3.15;;;0.80;;
39612;SDS011;25303;48.896;13.342;2023-04-24T15:40:50;1.13;;;0.80;;
39612;SDS011;25303;48.896;13.342;2023-04-24T15:43:33;2.13;;;1.00;;
39612;SDS011;25303;48.896;13.342;2023-04-24T15:46:16;1.10;;;0.75;;
39612;SDS011;25303;48.896;13.342;2023-04-24T15:48:59;1.38;;;0.75;;
39612;SDS011;25303;48.896;13.342;2023-04-24T15:51:42;1.48;;;0.77;;
39612;SDS011;25303;48.896;13.342;2023-04-24T15:54:24;3.22;;;1.00;;
39612;SDS011;25303;48.896;13.342;2023-04-24T15:57:09;1.20;;;0.70;;
39612;SDS011;25303;48.896;13.342;2023-04-24T15:59:53;2.60;;;0.77;;
39612;SDS011;25303;48.896;13.342;2023-04-24T16:02:37;1.83;;;0.80;;
39612;SDS011;25303;48.896;13.342;2023-04-24T16:05:20;2.38;;;0.80;;
39612;SDS011;25303;48.896;13.342;2023-04-24T16:08:05;0.82;;;0.60;;
39612;SDS011;25303;48.896;13.342;2023-04-24T16:10:48;2.80;;;0.90;;
39612;SDS011;25303;48.896;13.342;2023-04-24T16:13:32;1.60;;;0.75;;
39612;SDS011;25303;48.896;13.342;2023-04-24T16:16:15;0.82;;;0.50;;
39612;SDS011;25303;48.896;13.342;2023-04-24T16:18:58;1.30;;;0.70;;
39612;SDS011;25303;48.896;13.342;2023-04-24T16:21:41;2.15;;;0.80;;
39612;SDS011;25303;48.896;13.342;2023-04-24T16:24:24;2.40;;;0.85;;
39612;SDS011;25303;48.896;13.342;2023-04-24T16:27:07;1.38;;;0.65;;
39612;SDS011;25303;48.896;13.342;2023-04-24T16:29:52;2.15;;;0.60;;
39612;SDS011;25303;48.896;13.342;2023-04-24T16:32:37;2.50;;;0.70;;
39612;SDS011;25303;48.896;13.342;2023-04-24T16:35:20;0.75;;;0.70;;
39612;SDS011;25303;48.896;13.342;2023-04-24T16:38:03;0.85;;;0.60;;
39612;SDS011;25303;48.896;13.342;2023-04-24T16:40:46;1.13;;;0.75;;